Islamorada, FL (33036)

10:25 AM EDT on August 20, 2017 (GMT -0400)
Tavernier Creek | | Change Station

Elev 27 ft 25.01 °N, 80.54 °W | Updated 11 minutes ago

Mostly Cloudy
Mostly Cloudy
81.2 °F
Feels Like 88 °F
N
2.0
Wind Variable Wind from NNW
Gusts 6.0 mph

Today
High -- | Low -- °F
--% Chance of Precip.
Yesterday
High -- | Low -- °F
Precip. -- in
Pressure 30.03 in
Visibility 10.0 miles
Clouds Scattered Clouds 2300 ft
Scattered Clouds 3700 ft
Mostly Cloudy 4600 ft
Mostly Cloudy 10000 ft
Heat Index 88 °F
Dew Point 76 °F
Humidity 84%
Rainfall 0.20 in
Snow Depth Not available.
6:58 AM 7:52 PM
Waning Crescent, 2% visible
SPECI KHST 201417Z AUTO 04008KT 10SM -RA SCT023 SCT037 BKN046 BKN100 28/26 A3002 RMK AO2 LTG DSNT NE RAB17 PRESRR SLP169
Pressure 30.03 in
Visibility 10.0 miles
Clouds Scattered Clouds 2300 ft
Scattered Clouds 3700 ft
Mostly Cloudy 4600 ft
Mostly Cloudy 10000 ft
Heat Index 88 °F
Dew Point 76 °F
Humidity 84%
Rainfall 0.20 in
Snow Depth Not available.
6:58 AM 7:52 PM
Waning Crescent, 2% visible
SPECI KHST 201417Z AUTO 04008KT 10SM -RA SCT023 SCT037 BKN046 BKN100 28/26 A3002 RMK AO2 LTG DSNT NE RAB17 PRESRR SLP169

Get Severe Weather Alerts

Thanks for signing up!

Be on the lookout for a verification email in your inbox.

You'll start receiving the daily forecast at 6 AM.

×

10-Day Weather Forecast

Almanac

Astronomy

Aug. 20, 2017 Rise Set
Actual Time
Civil Twilight
Nautical Twilight
Astronomical Twilight
Moon
Length of Visible Light
Length of Day
Tomorrow will be .
, % of the Moon is Illuminated

Today's Extremes

State Highs State Lows

Community

WunderPhotos

Category 6

Welcome to Category 6. This is the collective home for Weather Underground's featured writeups by Dr. Jeff Masters (right), Bob Henson (left), Chris Burt, and other regular contributors.

Nearby

Air Quality

  Air Quality AQ Index Pollutant
Not available.

Snow Depth

Station Depth Elevation

Earthquake Activity

City Distance Mag. Time & Date
Minimum magnitude displayed is 2.5.

Coastal Water Temperatures

Place Temperature

Stations

Nearby Weather Stations

Station Location Temp. Windchill Dew Point Humidity Wind Precip. Elev Updated Type
                   

Watches & Warnings

There are currently no watches in effect.